Time;durP1;ratioP1;P1;durP2;ratioP2;P2;SDS_P1;SDS_P2;PMS_P1;PMS_P2;Temp;Humidity;BMP_temperature;BMP_pressure;BME280_temperature;BME280_humidity;BME280_pressure;Samples;Min_cycle;Max_cycle;Signal;HPM_P1;HPM_P2
2022/05/21 00:02:00;;;;;;;8.05;2.55;;;17.40;99.90;;;;;;5100247;27;20534;-81
2022/05/21 00:04:44;;;;;;;9.15;3.80;;;17.10;99.90;;;;;;5061864;28;20053;-81
2022/05/21 00:10:42;;;;;;;7.40;2.13;;;17.30;99.90;;;;;;5046782;28;20583;-82
2022/05/21 00:19:34;;;;;;;5.57;3.05;;;17.30;99.90;;;;;;5052796;28;20060;-82
2022/05/21 00:22:28;;;;;;;10.77;2.65;;;17.30;99.90;;;;;;5047839;28;20705;-82
2022/05/21 00:29:23;;;;;;;8.25;3.60;;;17.20;99.90;;;;;;5026850;28;20044;-82
2022/05/21 00:32:28;;;;;;;13.90;3.55;;;17.30;99.90;;;;;;5062832;28;20510;-83
2022/05/21 00:35:28;;;;;;;4.68;2.40;;;17.20;99.90;;;;;;5048696;27;20075;-82
2022/05/21 00:38:33;;;;;;;7.15;2.67;;;17.20;99.90;;;;;;5097571;27;20051;-82
2022/05/21 00:41:31;;;;;;;6.35;2.78;;;17.70;99.90;;;;;;5099083;27;20036;-82
2022/05/21 00:44:39;;;;;;;6.32;2.97;;;17.00;99.90;;;;;;5099756;27;20060;-82
2022/05/21 00:47:29;;;;;;;4.38;2.15;;;17.10;99.90;;;;;;5084979;27;20071;-82
2022/05/21 00:50:45;;;;;;;;;;;;;;;;;;;;;
2022/05/21 00:56:53;;;;;;;9.10;2.90;;;16.80;99.90;;;;;;5106104;27;20050;-82
2022/05/21 01:03:18;;;;;;;5.20;2.53;;;17.00;99.90;;;;;;5092058;27;20056;-83
2022/05/21 01:06:21;;;;;;;6.05;2.75;;;17.00;99.90;;;;;;5104426;27;20040;-83
2022/05/21 01:13:15;;;;;;;5.13;3.13;;;17.00;99.90;;;;;;5104837;27;20565;-82
2022/05/21 01:16:23;;;;;;;6.07;2.53;;;16.80;99.90;;;;;;5009029;28;20124;-82
2022/05/21 01:22:52;;;;;;;8.85;3.22;;;17.10;99.90;;;;;;4960219;28;20491;-82
2022/05/21 01:25:22;;;;;;;11.52;3.03;;;16.90;99.90;;;;;;5025921;28;20539;-82
2022/05/21 01:27:50;;;;;;;2.35;1.50;;;17.00;99.90;;;;;;5066933;27;20047;-82
2022/05/21 01:30:24;;;;;;;4.65;2.42;;;17.00;99.90;;;;;;5096850;27;20044;-82
2022/05/21 01:32:50;;;;;;;6.15;3.35;;;16.90;99.90;;;;;;5102847;27;20047;-82
2022/05/21 01:42:17;;;;;;;4.85;2.42;;;16.70;99.90;;;;;;5097419;27;20058;-82
2022/05/21 01:45:03;;;;;;;3.92;2.00;;;16.70;99.90;;;;;;5104336;27;20040;-82
2022/05/21 01:47:53;;;;;;;5.47;2.88;;;18.20;99.90;;;;;;5103150;27;20099;-82
2022/05/21 01:50:38;;;;;;;6.03;2.58;;;17.00;99.90;;;;;;5105924;27;20048;-82
2022/05/21 01:53:31;;;;;;;5.55;2.80;;;17.00;99.90;;;;;;5105295;27;20119;-82
2022/05/21 01:56:12;;;;;;;8.38;2.83;;;16.80;99.90;;;;;;5104037;27;20059;-82
2022/05/21 02:02:36;;;;;;;9.65;2.80;;;16.90;99.90;;;;;;5103462;27;21205;-82
2022/05/21 02:05:19;;;;;;;;;;;;;;;;;;;;;
2022/05/21 02:12:16;;;;;;;7.72;3.22;;;15.80;99.90;;;;;;5098139;27;20086;-82
2022/05/21 02:15:12;;;;;;;7.72;4.05;;;16.70;99.90;;;;;;5104312;27;20048;-82
2022/05/21 02:18:08;;;;;;;5.13;2.40;;;16.80;99.90;;;;;;5084530;27;20063;-82
2022/05/21 02:21:22;;;;;;;5.28;2.85;;;16.20;99.90;;;;;;5075544;27;20052;-82
2022/05/21 02:24:02;;;;;;;6.38;2.60;;;16.70;99.90;;;;;;5028195;27;20048;-82
2022/05/21 02:27:20;;;;;;;8.27;3.75;;;16.70;99.90;;;;;;5069245;27;20049;-82
2022/05/21 02:30:23;;;;;;;15.15;4.05;;;16.60;99.90;;;;;;5059195;27;20075;-82
2022/05/21 02:36:09;;;;;;;4.72;2.90;;;16.70;99.90;;;;;;5084340;27;20045;-82
2022/05/21 02:48:39;;;;;;;;;;;;;;;;;;;;;
2022/05/21 02:51:47;;;;;;;;;;;;;;;;;;;;;
2022/05/21 02:57:41;;;;;;;5.15;2.35;;;16.50;99.90;;;;;;5103419;27;20051;-82
2022/05/21 03:00:59;;;;;;;4.95;2.20;;;16.50;99.90;;;;;;5098373;27;20048;-82
2022/05/21 03:04:17;;;;;;;;;;;;;;;;;;;;;
2022/05/21 03:07:31;;;;;;;;;;;;;;;;;;;;;
2022/05/21 03:10:36;;;;;;;7.03;2.50;;;16.40;99.90;;;;;;5024321;28;40517;-82
2022/05/21 03:17:01;;;;;;;;;;;;;;;;;;;;;
2022/05/21 03:19:47;;;;;;;5.50;2.58;;;16.30;99.90;;;;;;5016492;28;39223;-81
2022/05/21 03:22:16;;;;;;;6.13;2.30;;;16.30;99.90;;;;;;5023035;28;20053;-82
2022/05/21 03:24:43;;;;;;;5.45;3.15;;;16.30;99.90;;;;;;5100546;27;20091;-82
2022/05/21 03:27:12;;;;;;;8.27;2.95;;;16.30;99.90;;;;;;5098658;27;20041;-82
2022/05/21 03:29:37;;;;;;;7.43;2.97;;;16.30;99.90;;;;;;5100459;27;20118;-82
2022/05/21 03:32:06;;;;;;;7.50;2.88;;;16.30;99.90;;;;;;5099862;27;20528;-81
2022/05/21 03:34:33;;;;;;;7.38;2.67;;;16.30;99.90;;;;;;5100268;27;20135;-81
2022/05/21 03:36:59;;;;;;;10.13;2.78;;;16.20;99.90;;;;;;5100296;27;20044;-81
2022/05/21 03:39:28;;;;;;;12.13;3.75;;;16.20;99.90;;;;;;5103027;27;20806;-82
2022/05/21 03:41:56;;;;;;;5.63;2.55;;;16.20;99.90;;;;;;5120453;27;20126;-79
2022/05/21 03:44:22;;;;;;;10.48;3.55;;;16.20;99.90;;;;;;5127177;27;20199;-81
2022/05/21 03:47:04;;;;;;;5.10;2.63;;;16.20;99.90;;;;;;5100287;27;20058;-81
2022/05/21 03:49:30;;;;;;;4.90;2.83;;;16.40;99.90;;;;;;5106181;27;20039;-83
2022/05/21 03:51:56;;;;;;;5.75;2.83;;;16.20;99.90;;;;;;5106018;27;20051;-82
2022/05/21 03:54:23;;;;;;;6.90;2.80;;;16.10;99.90;;;;;;5090028;27;20592;-82
2022/05/21 03:56:49;;;;;;;4.50;2.38;;;16.10;99.90;;;;;;5121780;27;20043;-82
2022/05/21 03:59:15;;;;;;;6.85;3.20;;;16.10;99.90;;;;;;5122004;27;20828;-82
2022/05/21 04:01:41;;;;;;;6.05;2.88;;;16.00;99.90;;;;;;5120153;27;20676;-81
2022/05/21 04:04:07;;;;;;;8.10;3.83;;;16.10;99.90;;;;;;5120353;27;20548;-82
2022/05/21 04:06:35;;;;;;;5.63;2.25;;;15.80;99.90;;;;;;5123631;27;20528;-82
2022/05/21 04:09:09;;;;;;;5.72;4.00;;;16.00;99.90;;;;;;5124980;27;20055;-81
2022/05/21 04:12:07;;;;;;;6.10;2.90;;;16.00;99.90;;;;;;5102344;27;20047;-82
2022/05/21 04:17:56;;;;;;;4.93;2.65;;;16.00;99.90;;;;;;5105107;27;20085;-82
2022/05/21 04:20:41;;;;;;;7.47;3.40;;;16.50;99.90;;;;;;5088105;27;20040;-83
2022/05/21 04:23:46;;;;;;;9.30;3.30;;;16.00;99.90;;;;;;5107349;27;20054;-82
2022/05/21 04:26:41;;;;;;;8.10;2.85;;;16.00;99.90;;;;;;5109665;27;20800;-82
2022/05/21 04:29:38;;;;;;;8.93;3.75;;;16.00;99.90;;;;;;5101384;27;20126;-82
2022/05/21 04:32:57;;;;;;;5.28;2.78;;;15.90;99.90;;;;;;5096700;27;20572;-82
2022/05/21 04:35:24;;;;;;;8.40;3.72;;;16.00;99.90;;;;;;5117636;27;20097;-81
2022/05/21 04:37:53;;;;;;;5.00;2.92;;;16.00;99.90;;;;;;5117942;27;20578;-82
2022/05/21 04:40:22;;;;;;;6.67;3.37;;;16.00;99.90;;;;;;5082074;28;20560;-81
2022/05/21 04:42:49;;;;;;;3.83;2.45;;;16.00;99.90;;;;;;5064213;28;20353;-82
2022/05/21 04:45:17;;;;;;;6.50;2.85;;;16.00;99.90;;;;;;5070429;28;20182;-81
2022/05/21 04:47:44;;;;;;;10.38;2.90;;;16.00;99.90;;;;;;5064080;28;20187;-82
2022/05/21 04:50:13;;;;;;;5.70;2.97;;;16.00;99.90;;;;;;5080975;28;20138;-81
2022/05/21 04:52:39;;;;;;;8.32;3.58;;;15.70;99.90;;;;;;5063780;28;20052;-82
2022/05/21 04:55:08;;;;;;;8.50;4.40;;;16.00;99.90;;;;;;5082291;28;20039;-82
2022/05/21 04:57:33;;;;;;;7.80;3.63;;;16.00;99.90;;;;;;5082910;27;20592;-81
2022/05/21 04:59:59;;;;;;;6.15;2.70;;;16.00;99.90;;;;;;5083606;27;20051;-81
2022/05/21 05:02:27;;;;;;;8.15;3.28;;;16.00;99.90;;;;;;5065263;27;20039;-81
2022/05/21 05:04:56;;;;;;;6.45;2.97;;;16.00;99.90;;;;;;5084399;27;20048;-82
2022/05/21 05:07:23;;;;;;;8.93;4.93;;;16.00;99.90;;;;;;5082579;27;20104;-81
2022/05/21 05:09:50;;;;;;;7.18;3.60;;;16.00;99.90;;;;;;5064600;27;20052;-81
2022/05/21 05:12:18;;;;;;;8.77;3.47;;;16.00;99.90;;;;;;5081610;27;20040;-82
2022/05/21 05:14:47;;;;;;;7.97;3.47;;;16.00;99.90;;;;;;5081935;27;20206;-82
2022/05/21 05:17:17;;;;;;;7.85;3.35;;;15.70;99.90;;;;;;5082199;27;20040;-82
2022/05/21 05:19:43;;;;;;;7.40;3.65;;;16.00;99.90;;;;;;5065294;27;20063;-82
2022/05/21 05:22:09;;;;;;;7.90;3.47;;;16.90;99.90;;;;;;5071175;27;20155;-81
2022/05/21 05:24:38;;;;;;;9.85;3.35;;;15.60;99.90;;;;;;5085154;27;20036;-81
2022/05/21 05:27:07;;;;;;;10.20;3.40;;;16.10;99.90;;;;;;5082214;27;20506;-82
2022/05/21 05:29:35;;;;;;;6.28;3.33;;;16.10;99.90;;;;;;5081625;27;20502;-83
2022/05/21 05:32:03;;;;;;;6.60;2.90;;;16.10;99.90;;;;;;5083338;27;20041;-81
2022/05/21 05:34:29;;;;;;;5.60;3.65;;;16.10;99.90;;;;;;5065028;27;20497;-81
2022/05/21 05:36:55;;;;;;;8.38;3.58;;;16.10;99.90;;;;;;5084260;27;20167;-82
2022/05/21 05:39:21;;;;;;;5.15;3.85;;;16.20;99.90;;;;;;5083194;27;20040;-81
2022/05/21 05:41:48;;;;;;;7.40;3.40;;;16.20;99.90;;;;;;5087713;27;20139;-82
2022/05/21 05:44:51;;;;;;;5.93;2.90;;;16.20;99.90;;;;;;5085941;27;20116;-85
2022/05/21 05:47:17;;;;;;;7.53;4.35;;;16.30;99.90;;;;;;5069053;27;20521;-82
2022/05/21 05:49:43;;;;;;;9.13;2.92;;;16.30;99.90;;;;;;5069892;27;20045;-83
2022/05/21 05:52:09;;;;;;;11.68;3.67;;;16.30;99.90;;;;;;5088464;27;20453;-83
2022/05/21 05:54:36;;;;;;;5.05;2.70;;;16.40;99.90;;;;;;5089515;27;20044;-82
2022/05/21 05:57:03;;;;;;;7.78;3.00;;;16.20;99.90;;;;;;5076306;27;20040;-84
2022/05/21 06:04:58;;;;;;;6.75;3.10;;;16.40;99.90;;;;;;5086283;27;20051;-82
2022/05/21 06:07:24;;;;;;;8.77;3.97;;;16.40;99.90;;;;;;5083410;27;20040;-83
2022/05/21 06:09:50;;;;;;;8.95;4.55;;;16.50;99.90;;;;;;5087645;27;20040;-83
2022/05/21 06:12:15;;;;;;;6.18;3.92;;;16.50;99.90;;;;;;5069695;27;20115;-83
2022/05/21 06:14:42;;;;;;;6.28;2.80;;;16.60;99.90;;;;;;5068716;27;20086;-83
2022/05/21 06:17:09;;;;;;;6.55;3.20;;;16.70;99.90;;;;;;5083171;27;20047;-83
2022/05/21 06:19:35;;;;;;;11.07;4.25;;;16.70;99.90;;;;;;5068231;27;20071;-83
2022/05/21 06:22:03;;;;;;;6.10;3.00;;;16.70;99.90;;;;;;5084021;27;20044;-83
2022/05/21 06:24:33;;;;;;;8.80;3.05;;;16.80;99.90;;;;;;5088491;27;20036;-83
2022/05/21 06:26:58;;;;;;;9.23;4.40;;;16.80;99.90;;;;;;5088681;27;20194;-83
2022/05/21 06:29:24;;;;;;;7.78;4.35;;;16.80;99.90;;;;;;5070979;27;20974;-81
2022/05/21 06:31:50;;;;;;;12.07;4.28;;;16.80;99.90;;;;;;5088631;27;20048;-83
2022/05/21 06:34:16;;;;;;;8.38;3.10;;;16.90;99.90;;;;;;5069855;27;20567;-83
2022/05/21 06:36:41;;;;;;;5.10;3.67;;;16.90;99.90;;;;;;5070434;27;20052;-81
2022/05/21 06:39:07;;;;;;;8.63;3.10;;;16.90;99.90;;;;;;5069881;27;20150;-81
2022/05/21 06:41:34;;;;;;;6.95;2.70;;;16.90;99.90;;;;;;5069807;27;20131;-82
2022/05/21 06:44:00;;;;;;;7.38;3.15;;;16.90;99.90;;;;;;5088056;27;20036;-82
2022/05/21 06:46:25;;;;;;;6.22;2.80;;;17.00;99.90;;;;;;5070723;27;20036;-82
2022/05/21 06:48:56;;;;;;;7.07;2.67;;;17.00;99.90;;;;;;5086281;27;20334;-81
2022/05/21 06:51:22;;;;;;;5.55;2.88;;;17.10;99.90;;;;;;5082656;27;20052;-82
2022/05/21 06:54:09;;;;;;;4.70;3.45;;;17.10;99.90;;;;;;5086417;27;20429;-83
2022/05/21 06:56:38;;;;;;;5.30;3.13;;;17.20;99.90;;;;;;5065555;27;20048;-83
2022/05/21 06:59:22;;;;;;;7.75;2.63;;;17.20;99.90;;;;;;5067932;27;20040;-83
2022/05/21 07:02:04;;;;;;;;;;;;;;;;;;;;;
2022/05/21 07:07:43;;;;;;;9.57;2.55;;;17.20;99.90;;;;;;5085524;27;21238;-83
2022/05/21 07:10:20;;;;;;;6.97;2.85;;;17.30;99.90;;;;;;5083925;27;20095;-83
2022/05/21 07:12:50;;;;;;;4.45;2.90;;;17.30;99.90;;;;;;5084529;27;20039;-83
2022/05/21 07:15:48;;;;;;;5.45;2.60;;;17.40;99.90;;;;;;5064742;27;20789;-82
2022/05/21 07:18:29;;;;;;;4.78;2.42;;;17.40;99.90;;;;;;5067180;27;20486;-82
2022/05/21 07:21:18;;;;;;;4.88;2.47;;;17.50;99.90;;;;;;5067323;27;20066;-83
2022/05/21 07:23:48;;;;;;;11.93;2.50;;;17.50;99.90;;;;;;5067631;27;20036;-82
2022/05/21 07:26:15;;;;;;;8.70;3.17;;;17.60;99.90;;;;;;5068462;27;20032;-83
2022/05/21 07:28:58;;;;;;;7.10;3.03;;;17.70;99.90;;;;;;5070206;27;20036;-83
2022/05/21 07:31:27;;;;;;;4.80;2.30;;;17.70;99.90;;;;;;5069483;27;20053;-83
2022/05/21 07:34:05;;;;;;;5.13;2.17;;;17.40;99.90;;;;;;5069232;27;20092;-83
2022/05/21 07:37:05;;;;;;;7.13;2.67;;;18.10;99.90;;;;;;5088224;27;20530;-83
2022/05/21 07:39:55;;;;;;;5.07;2.42;;;18.10;99.90;;;;;;5067421;27;20040;-83
2022/05/21 07:42:49;;;;;;;8.38;2.53;;;18.10;99.90;;;;;;5068662;27;20643;-83
2022/05/21 07:53:05;;;;;;;;;;;;;;;;;;;;;
2022/05/21 07:59:25;;;;;;;8.10;2.47;;;17.90;99.90;;;;;;5045163;28;20045;-82
2022/05/21 08:02:16;;;;;;;;;;;;;;;;;;;;;
2022/05/21 08:05:06;;;;;;;9.73;3.20;;;18.30;99.90;;;;;;5076356;27;44210;-82
2022/05/21 08:07:40;;;;;;;5.72;2.85;;;18.80;99.90;;;;;;5030403;28;20092;-83
2022/05/21 08:10:14;;;;;;;4.65;2.05;;;18.30;99.90;;;;;;5012983;28;20193;-83
2022/05/21 08:12:40;;;;;;;2.67;1.80;;;18.30;99.90;;;;;;5007384;28;20531;-81
2022/05/21 08:15:07;;;;;;;5.30;3.22;;;18.20;99.90;;;;;;5027249;28;20049;-83
2022/05/21 08:17:39;;;;;;;7.80;2.35;;;18.30;99.90;;;;;;5007407;28;20064;-83
2022/05/21 08:20:18;;;;;;;5.25;2.85;;;18.30;99.90;;;;;;5009387;28;20052;-82
2022/05/21 08:29:49;;;;;;;4.40;3.05;;;18.40;99.90;;;;;;5031678;28;20112;-80
2022/05/21 08:32:31;;;;;;;6.05;1.90;;;18.60;99.90;;;;;;5013400;28;20448;-82
2022/05/21 08:35:26;;;;;;;13.73;2.50;;;18.40;99.90;;;;;;5009615;28;20053;-81
2022/05/21 08:38:15;;;;;;;5.63;2.42;;;17.80;99.90;;;;;;5007490;27;20059;-86
2022/05/21 08:40:54;;;;;;;7.10;2.63;;;18.50;99.90;;;;;;5065285;27;20047;-81
2022/05/21 08:43:44;;;;;;;5.47;2.10;;;18.60;99.90;;;;;;5066828;27;20138;-82
2022/05/21 08:46:38;;;;;;;11.82;2.38;;;18.20;99.90;;;;;;5065871;27;20044;-81
2022/05/21 08:49:29;;;;;;;5.07;2.20;;;18.60;99.90;;;;;;5066147;27;20173;-80
2022/05/21 08:52:37;;;;;;;5.97;3.75;;;18.70;99.90;;;;;;5068792;27;20048;-82
2022/05/21 08:55:11;;;;;;;6.07;1.85;;;18.30;99.90;;;;;;5063767;28;20160;-81
2022/05/21 08:58:02;;;;;;;3.78;1.73;;;18.80;99.90;;;;;;5068353;27;20089;-81
2022/05/21 09:00:43;;;;;;;6.05;2.17;;;18.90;99.90;;;;;;5068397;27;20048;-81
2022/05/21 09:03:22;;;;;;;5.00;2.75;;;19.40;99.90;;;;;;5067429;27;20044;-80
2022/05/21 09:06:42;;;;;;;7.72;3.60;;;19.00;99.90;;;;;;5065528;27;20032;-80
2022/05/21 09:09:30;;;;;;;6.07;2.58;;;19.00;99.90;;;;;;5085154;27;20102;-81
2022/05/21 09:12:18;;;;;;;7.03;2.30;;;19.10;99.90;;;;;;5084450;27;20041;-81
2022/05/21 09:14:47;;;;;;;5.35;2.20;;;19.20;99.90;;;;;;5068088;27;20052;-82
2022/05/21 09:17:24;;;;;;;6.13;2.22;;;19.30;99.90;;;;;;5085255;27;20033;-81
2022/05/21 09:19:57;;;;;;;4.93;2.65;;;19.40;99.90;;;;;;5089870;27;20048;-82
2022/05/21 09:22:24;;;;;;;5.03;2.30;;;19.40;99.90;;;;;;5086564;27;20079;-82
2022/05/21 09:25:18;;;;;;;7.68;2.35;;;19.40;99.90;;;;;;5069222;27;20045;-81
2022/05/21 09:27:59;;;;;;;5.85;2.22;;;19.40;99.90;;;;;;5089099;27;20561;-81
2022/05/21 09:30:37;;;;;;;5.95;2.85;;;19.40;99.90;;;;;;5095436;27;20176;-80
2022/05/21 09:33:36;;;;;;;4.78;2.58;;;19.50;99.90;;;;;;5089451;27;20052;-80
2022/05/21 09:36:02;;;;;;;6.70;2.40;;;19.60;99.90;;;;;;5089624;27;20549;-82
2022/05/21 09:38:31;;;;;;;6.78;2.53;;;19.70;99.90;;;;;;5088167;27;20154;-80
2022/05/21 09:41:15;;;;;;;7.50;2.47;;;19.80;99.90;;;;;;5071357;27;20059;-81
2022/05/21 09:46:33;;;;;;;4.30;3.17;;;19.80;99.90;;;;;;5089469;27;20138;-81
2022/05/21 09:49:25;;;;;;;7.10;2.95;;;19.70;99.90;;;;;;5089698;27;20127;-81
2022/05/21 09:51:58;;;;;;;5.38;1.85;;;19.70;99.90;;;;;;5088783;27;20055;-81
2022/05/21 09:54:38;;;;;;;11.40;2.22;;;19.60;99.90;;;;;;5090201;27;20133;-81
2022/05/21 09:57:04;;;;;;;9.95;2.33;;;19.70;99.90;;;;;;5071172;27;20040;-81
2022/05/21 09:59:33;;;;;;;5.88;2.35;;;19.80;99.90;;;;;;5070351;27;20033;-81
2022/05/21 10:02:19;;;;;;;5.95;2.70;;;19.90;99.90;;;;;;5088477;27;20044;-81
2022/05/21 10:04:56;;;;;;;5.38;2.40;;;20.00;99.90;;;;;;5072977;27;20083;-81
2022/05/21 10:11:02;;;;;;;3.88;1.80;;;20.20;99.90;;;;;;5090526;27;20493;-81
2022/05/21 10:13:50;;;;;;;5.53;1.92;;;20.00;99.90;;;;;;5072761;27;20040;-81
2022/05/21 10:16:46;;;;;;;5.03;1.95;;;19.60;99.90;;;;;;5071697;27;20044;-81
2022/05/21 10:19:47;;;;;;;4.88;2.17;;;20.20;99.90;;;;;;5069815;27;20105;-81
2022/05/21 10:22:42;;;;;;;6.95;2.80;;;20.10;99.90;;;;;;5085488;27;20039;-81
2022/05/21 10:25:37;;;;;;;8.70;2.95;;;20.30;99.90;;;;;;5070779;27;20054;-81
2022/05/21 10:28:26;;;;;;;9.07;2.22;;;20.50;99.90;;;;;;5071034;27;20655;-81
2022/05/21 10:31:36;;;;;;;8.30;2.15;;;20.50;99.90;;;;;;5089183;27;20045;-81
2022/05/21 10:34:21;;;;;;;4.55;1.88;;;20.60;99.90;;;;;;5071657;27;20049;-81
2022/05/21 10:37:40;;;;;;;5.20;2.47;;;20.80;99.90;;;;;;5070540;27;21262;-81
2022/05/21 10:40:26;;;;;;;3.72;1.90;;;21.00;99.90;;;;;;5037801;27;20052;-81
2022/05/21 10:43:04;;;;;;;5.03;1.98;;;21.10;99.90;;;;;;5070266;27;20036;-81
2022/05/21 10:45:34;;;;;;;6.15;2.60;;;21.30;99.90;;;;;;5088334;27;20040;-79
2022/05/21 10:48:30;;;;;;;6.85;1.85;;;21.40;99.90;;;;;;5089345;27;20051;-81
2022/05/21 10:51:14;;;;;;;4.05;2.85;;;21.50;99.90;;;;;;5088011;27;20048;-81
2022/05/21 10:54:02;;;;;;;4.38;2.22;;;21.60;99.90;;;;;;5089426;27;20186;-81
2022/05/21 10:57:11;;;;;;;5.15;2.40;;;21.70;99.90;;;;;;5088386;27;20036;-81
2022/05/21 11:00:05;;;;;;;4.45;2.15;;;21.90;99.90;;;;;;5006691;28;20049;-81
2022/05/21 11:02:40;;;;;;;4.40;2.38;;;22.00;99.90;;;;;;5087444;27;20040;-81
2022/05/21 11:08:48;;;;;;;5.47;1.83;;;22.00;99.90;;;;;;5067274;27;20053;-85
2022/05/21 11:11:57;;;;;;;8.27;1.70;;;22.00;99.90;;;;;;5067073;27;20128;-83
2022/05/21 11:14:35;;;;;;;3.90;2.33;;;22.10;99.90;;;;;;5066361;27;20891;-82
2022/05/21 11:17:23;;;;;;;8.55;2.90;;;22.10;99.90;;;;;;5066550;27;20044;-82
2022/05/21 11:20:14;;;;;;;4.28;1.80;;;22.10;99.90;;;;;;5085009;27;20040;-84
2022/05/21 11:23:09;;;;;;;3.97;1.98;;;22.10;99.90;;;;;;5085780;27;20561;-78
2022/05/21 11:25:52;;;;;;;4.95;2.20;;;22.00;99.90;;;;;;5067785;27;20137;-84
2022/05/21 11:28:43;;;;;;;4.35;2.15;;;22.00;99.90;;;;;;5068232;27;20100;-79
2022/05/21 11:37:20;;;;;;;5.38;2.95;;;22.10;99.90;;;;;;5086546;27;20044;-81
2022/05/21 11:39:46;;;;;;;216.35;71.65;;;22.10;99.90;;;;;;5084605;27;20469;-82
2022/05/21 11:42:16;;;;;;;11.70;5.22;;;22.00;99.90;;;;;;5086283;27;20044;-79
2022/05/21 11:44:56;;;;;;;24.08;8.07;;;21.90;99.90;;;;;;5086075;27;20098;-80
2022/05/21 11:47:25;;;;;;;6.78;3.13;;;21.90;99.90;;;;;;5087674;27;20464;-80
2022/05/21 11:50:00;;;;;;;5.35;2.30;;;22.00;99.90;;;;;;5069275;27;20045;-80
2022/05/21 11:52:31;;;;;;;12.35;3.60;;;22.00;99.90;;;;;;5083299;27;20036;-80
2022/05/21 11:54:57;;;;;;;7.03;1.92;;;22.20;99.90;;;;;;5083179;27;20073;-80
2022/05/21 11:57:33;;;;;;;4.13;2.08;;;22.20;99.90;;;;;;5088294;27;20116;-81
2022/05/21 12:00:00;;;;;;;3.95;1.77;;;22.20;99.90;;;;;;5086935;27;20040;-81
2022/05/21 12:02:39;;;;;;;5.82;2.13;;;22.10;99.90;;;;;;5068207;27;20113;-81
2022/05/21 12:05:10;;;;;;;3.58;2.10;;;22.00;99.90;;;;;;5083620;27;20054;-81
2022/05/21 12:07:46;;;;;;;7.13;1.70;;;22.00;99.90;;;;;;5066238;27;20056;-81
2022/05/21 12:10:12;;;;;;;3.65;2.38;;;22.20;99.90;;;;;;5086225;27;20271;-81
2022/05/21 12:12:59;;;;;;;5.10;1.75;;;22.20;99.90;;;;;;5068592;27;20040;-81
2022/05/21 12:15:39;;;;;;;5.35;1.70;;;22.30;99.90;;;;;;5086460;27;20450;-81
2022/05/21 12:18:26;;;;;;;4.65;1.98;;;22.20;99.90;;;;;;5085734;27;20037;-81
2022/05/21 12:20:53;;;;;;;3.90;1.63;;;22.10;99.90;;;;;;5087107;27;20043;-83
2022/05/21 12:23:33;;;;;;;4.82;2.08;;;22.20;99.90;;;;;;5087051;27;20119;-81
2022/05/21 12:26:01;;;;;;;5.03;2.10;;;22.20;99.90;;;;;;5087058;27;20523;-81
2022/05/21 12:28:47;;;;;;;3.65;1.77;;;22.30;99.90;;;;;;5086443;27;20040;-81
2022/05/21 12:31:21;;;;;;;3.90;1.85;;;22.40;99.90;;;;;;5067857;27;20048;-84
2022/05/21 12:34:22;;;;;;;4.40;1.58;;;22.50;99.90;;;;;;5085464;27;20044;-82
2022/05/21 12:37:00;;;;;;;3.77;1.20;;;22.60;99.70;;;;;;4985074;27;20062;-82
2022/05/21 12:39:48;;;;;;;6.20;1.42;;;22.70;99.40;;;;;;5086278;27;20143;-81
2022/05/21 12:42:23;;;;;;;2.78;1.40;;;22.70;99.20;;;;;;5028542;27;20044;-81
2022/05/21 12:44:49;;;;;;;2.55;1.33;;;22.70;99.00;;;;;;5086567;27;20055;-81
2022/05/21 12:47:50;;;;;;;;;;;;;;;;;;;;;
2022/05/21 12:50:27;;;;;;;3.83;1.60;;;22.80;98.90;;;;;;5084965;27;44418;-81
2022/05/21 12:53:01;;;;;;;2.80;1.17;;;22.70;98.50;;;;;;5086554;27;20044;-81
2022/05/21 12:55:34;;;;;;;4.60;1.70;;;22.70;98.10;;;;;;5065647;27;20470;-81
2022/05/21 12:58:09;;;;;;;1.80;1.30;;;22.60;97.70;;;;;;5066168;27;20051;-81
2022/05/21 13:00:53;;;;;;;6.28;1.73;;;22.60;97.50;;;;;;5066362;27;20036;-80
2022/05/21 13:03:28;;;;;;;2.05;1.55;;;22.50;97.40;;;;;;5064884;27;20459;-81
2022/05/21 13:06:22;;;;;;;2.90;1.40;;;22.60;97.50;;;;;;5073268;27;20075;-81
2022/05/21 13:08:52;;;;;;;4.30;1.42;;;22.60;97.50;;;;;;5068657;27;20052;-81
2022/05/21 13:11:28;;;;;;;1.85;1.30;;;22.60;97.40;;;;;;5085715;27;20044;-82
2022/05/21 13:14:19;;;;;;;2.65;1.00;;;22.60;97.20;;;;;;5068742;27;20049;-82
2022/05/21 13:16:55;;;;;;;2.65;1.25;;;22.60;97.00;;;;;;5083684;27;20051;-81
2022/05/21 13:19:26;;;;;;;5.63;1.55;;;22.40;96.90;;;;;;5066481;27;20051;-82
2022/05/21 13:22:40;;;;;;;3.92;1.40;;;22.30;96.90;;;;;;5087176;27;20193;-85
2022/05/21 13:25:12;;;;;;;8.50;1.55;;;22.30;96.60;;;;;;5067669;27;20048;-81
2022/05/21 13:28:15;;;;;;;4.32;1.40;;;22.20;96.50;;;;;;5067526;27;20542;-81
2022/05/21 13:31:02;;;;;;;4.35;1.20;;;22.30;96.50;;;;;;5087461;27;20043;-82
2022/05/21 13:33:44;;;;;;;2.17;1.38;;;22.30;96.50;;;;;;5066105;28;20045;-82
2022/05/21 13:36:14;;;;;;;4.00;1.35;;;22.30;96.40;;;;;;5068068;27;20510;-81
2022/05/21 13:38:51;;;;;;;3.55;1.48;;;22.30;96.30;;;;;;5065290;27;20058;-92
2022/05/21 13:41:40;;;;;;;5.85;1.30;;;22.30;96.20;;;;;;5083208;27;20502;-82
2022/05/21 13:44:24;;;;;;;2.83;1.23;;;22.40;96.30;;;;;;5067142;27;20051;-82
2022/05/21 13:46:58;;;;;;;4.18;1.63;;;22.40;96.30;;;;;;5067766;27;20551;-83
2022/05/21 13:49:49;;;;;;;4.85;1.40;;;22.40;96.20;;;;;;5074134;27;21357;-81
2022/05/21 13:52:14;;;;;;;3.50;1.73;;;22.40;96.10;;;;;;5074378;27;20608;-81
2022/05/21 13:54:41;;;;;;;2.35;1.30;;;22.40;95.70;;;;;;5084943;27;21095;-81
2022/05/21 13:57:14;;;;;;;3.97;1.55;;;22.40;95.50;;;;;;5083948;27;20758;-81
2022/05/21 14:00:16;;;;;;;2.70;1.38;;;22.40;95.50;;;;;;5065505;27;20071;-81
2022/05/21 14:02:51;;;;;;;8.10;1.77;;;22.30;95.20;;;;;;5088538;27;20048;-81
2022/05/21 14:05:26;;;;;;;7.82;1.80;;;22.30;95.00;;;;;;5070056;27;20526;-80
2022/05/21 14:08:09;;;;;;;3.03;1.67;;;22.30;95.10;;;;;;5071483;27;20039;-81
2022/05/21 14:10:49;;;;;;;6.18;2.22;;;22.30;94.90;;;;;;5087432;27;20041;-81
2022/05/21 14:13:26;;;;;;;18.80;3.28;;;22.30;94.80;;;;;;5090113;27;20048;-81
2022/05/21 14:16:23;;;;;;;9.18;2.95;;;22.40;94.90;;;;;;5088253;27;20143;-81
2022/05/21 14:19:22;;;;;;;4.63;2.35;;;22.40;94.90;;;;;;5070042;27;20090;-81
2022/05/21 14:22:14;;;;;;;12.75;3.15;;;22.50;94.70;;;;;;5088257;27;20123;-81
2022/05/21 14:24:48;;;;;;;4.72;1.27;;;22.50;94.60;;;;;;5070248;27;20051;-81
2022/05/21 14:27:27;;;;;;;4.38;1.40;;;22.50;94.60;;;;;;5070272;27;20045;-80
2022/05/21 14:29:52;;;;;;;3.72;1.40;;;22.50;94.50;;;;;;5077908;27;20040;-81
2022/05/21 14:32:19;;;;;;;2.97;1.85;;;22.60;94.50;;;;;;5084453;27;20047;-80
2022/05/21 14:34:47;;;;;;;2.83;1.30;;;22.60;94.60;;;;;;5084816;27;20048;-81
2022/05/21 14:37:28;;;;;;;3.85;1.48;;;22.70;94.70;;;;;;5084679;27;20041;-81
2022/05/21 14:39:57;;;;;;;2.45;1.13;;;22.80;94.60;;;;;;5065553;27;20040;-81
2022/05/21 14:42:24;;;;;;;2.47;1.23;;;22.90;94.40;;;;;;5042772;28;20045;-81
2022/05/21 14:44:55;;;;;;;2.55;1.17;;;23.00;94.10;;;;;;5043827;28;20055;-80
2022/05/21 14:53:31;;;;;;;2.53;1.45;;;22.70;93.80;;;;;;5046239;28;20041;-84
2022/05/21 14:56:06;;;;;;;3.03;1.10;;;22.90;93.90;;;;;;5048131;28;20587;-84
2022/05/21 14:58:54;;;;;;;3.78;2.30;;;22.60;93.90;;;;;;5055362;28;20054;-84
2022/05/21 15:01:21;;;;;;;4.18;1.52;;;22.70;94.00;;;;;;5048762;28;20041;-84
2022/05/21 15:04:03;;;;;;;3.13;1.50;;;22.70;94.10;;;;;;5064758;28;20046;-83
2022/05/21 15:06:40;;;;;;;;;;;22.80;94.30;;;;;;5050220;28;20172;-82
2022/05/21 15:09:12;;;;;;;1.88;0.90;;;22.80;94.00;;;;;;5065587;28;19951;-83
2022/05/21 15:11:47;;;;;;;2.28;1.20;;;22.80;94.10;;;;;;5050256;28;20568;-84
2022/05/21 15:14:17;;;;;;;3.00;1.70;;;23.10;94.00;;;;;;5048061;28;20049;-82
2022/05/21 15:16:55;;;;;;;2.15;1.38;;;22.90;93.70;;;;;;5050748;28;20369;-82
2022/05/21 15:19:23;;;;;;;4.82;1.58;;;22.90;93.50;;;;;;5048411;28;20554;-82
2022/05/21 15:21:58;;;;;;;3.13;1.30;;;22.80;93.50;;;;;;5065104;28;20041;-81
2022/05/21 15:24:30;;;;;;;8.45;2.22;;;22.90;93.50;;;;;;5048557;28;20603;-82
2022/05/21 15:26:56;;;;;;;1.42;1.08;;;22.90;93.50;;;;;;5047759;28;20067;-83
2022/05/21 15:29:30;;;;;;;2.92;1.00;;;22.80;93.50;;;;;;5045756;28;20045;-81
2022/05/21 15:32:13;;;;;;;5.88;1.48;;;22.80;93.50;;;;;;5047037;28;20128;-88
2022/05/21 15:34:44;;;;;;;2.33;1.20;;;23.00;93.70;;;;;;5045141;28;20103;-82
2022/05/21 15:37:10;;;;;;;3.22;1.58;;;22.90;93.70;;;;;;5045607;28;20144;-81
2022/05/21 15:39:39;;;;;;;2.78;1.23;;;23.20;93.90;;;;;;5047523;28;20053;-82
2022/05/21 15:42:17;;;;;;;2.08;1.13;;;22.80;93.80;;;;;;5070392;28;20134;-82
2022/05/21 15:44:51;;;;;;;9.07;2.33;;;22.90;93.80;;;;;;5069167;28;20037;-81
2022/05/21 15:47:22;;;;;;;3.30;1.35;;;23.00;93.80;;;;;;5084496;27;20537;-81
2022/05/21 15:49:49;;;;;;;2.55;1.65;;;22.80;93.70;;;;;;5082848;27;20053;-83
2022/05/21 15:52:26;;;;;;;8.50;2.15;;;23.20;93.70;;;;;;5068655;28;20050;-82
2022/05/21 15:55:02;;;;;;;6.35;1.75;;;23.10;93.60;;;;;;5069085;28;20037;-81
2022/05/21 15:57:41;;;;;;;5.07;1.30;;;23.20;93.60;;;;;;5067643;28;20045;-81